Time;durP1;ratioP1;P1;durP2;ratioP2;P2;SDS_P1;SDS_P2;PMS_P1;PMS_P2;Temp;Humidity;BMP_temperature;BMP_pressure;BME280_temperature;BME280_humidity;BME280_pressure;Samples;Min_cycle;Max_cycle;Signal;HPM_P1;HPM_P2
2022/03/04 00:00:49;;;;;;;;;;;;;;;;;;5058183;28;19963;-25
2022/03/04 00:03:15;;;;;;;;;;;;;;;;;;5058019;28;19956;-25
2022/03/04 00:05:41;;;;;;;;;;;;;;;;;;5058043;28;19923;-26
2022/03/04 00:08:07;;;;;;;;;;;;;;;;;;5058310;28;19913;-25
2022/03/04 00:10:33;;;;;;;;;;;;;;;;;;5058061;28;20335;-25
2022/03/04 00:12:59;;;;;;;;;;;;;;;;;;5058174;28;20003;-25
2022/03/04 00:15:25;;;;;;;;;;;;;;;;;;5057005;28;20369;-26
2022/03/04 00:17:51;;;;;;;;;;;;;;;;;;5058441;28;19998;-26
2022/03/04 00:20:17;;;;;;;;;;;;;;;;;;5057806;28;19916;-25
2022/03/04 00:22:43;;;;;;;;;;;;;;;;;;5058292;28;20332;-25
2022/03/04 00:25:09;;;;;;;;;;;;;;;;;;5056706;28;20237;-24
2022/03/04 00:27:35;;;;;;;;;;;;;;;;;;5057692;28;19970;-24
2022/03/04 00:30:01;;;;;;;;;;;;;;;;;;5058237;28;19971;-26
2022/03/04 00:32:27;;;;;;;;;;;;;;;;;;5058038;28;20294;-27
2022/03/04 00:34:53;;;;;;;;;;;;;;;;;;5057516;28;19912;-24
2022/03/04 00:37:19;;;;;;;;;;;;;;;;;;5058230;28;19912;-24
2022/03/04 00:39:45;;;;;;;;;;;;;;;;;;5057466;28;19909;-25
2022/03/04 00:42:11;;;;;;;;;;;;;;;;;;5057363;28;20424;-25
2022/03/04 00:44:37;;;;;;;;;;;;;;;;;;5057234;28;20007;-25
2022/03/04 00:47:03;;;;;;;;;;;;;;;;;;5057273;28;19978;-25
2022/03/04 00:49:29;;;;;;;;;;;;;;;;;;5057810;28;19920;-25
2022/03/04 00:51:55;;;;;;;;;;;;;;;;;;5057164;28;20279;-25
2022/03/04 00:54:22;;;;;;;;;;;;;;;;;;5057765;28;20323;-25
2022/03/04 00:56:48;;;;;;;;;;;;;;;;;;5057128;28;20003;-25
2022/03/04 00:59:14;;;;;;;;;;;;;;;;;;5057108;28;19971;-25
2022/03/04 01:01:40;;;;;;;;;;;;;;;;;;5057129;28;19966;-25
2022/03/04 01:04:06;;;;;;;;;;;;;;;;;;5056762;28;19920;-25
2022/03/04 01:06:32;;;;;;;;;;;;;;;;;;5056123;28;20298;-25
2022/03/04 01:08:58;;;;;;;;;;;;;;;;;;5057485;28;19915;-25
2022/03/04 01:11:24;;;;;;;;;;;;;;;;;;5056841;28;19917;-25
2022/03/04 01:13:50;;;;;;;;;;;;;;;;;;5056808;28;20344;-25
2022/03/04 01:16:16;;;;;;;;;;;;;;;;;;5056800;28;20225;-25
2022/03/04 01:18:42;;;;;;;;;;;;;;;;;;5056733;28;19913;-25
2022/03/04 01:21:08;;;;;;;;;;;;;;;;;;5056698;28;19919;-25
2022/03/04 01:23:34;;;;;;;;;;;;;;;;;;5056586;28;20268;-25
2022/03/04 01:26:00;;;;;;;;;;;;;;;;;;5056788;28;19943;-25
2022/03/04 01:28:26;;;;;;;;;;;;;;;;;;5056569;28;19908;-25
2022/03/04 01:30:53;;;;;;;;;;;;;;;;;;5056740;28;19912;-25
2022/03/04 01:33:19;;;;;;;;;;;;;;;;;;5056361;28;20339;-25
2022/03/04 01:35:45;;;;;;;;;;;;;;;;;;5056375;28;19999;-25
2022/03/04 01:38:11;;;;;;;;;;;;;;;;;;5056346;28;20016;-26
2022/03/04 01:40:37;;;;;;;;;;;;;;;;;;5056239;28;19919;-25
2022/03/04 01:43:03;;;;;;;;;;;;;;;;;;5056750;28;19919;-26
2022/03/04 01:45:29;;;;;;;;;;;;;;;;;;5056105;28;19948;-25
2022/03/04 01:47:55;;;;;;;;;;;;;;;;;;5056154;28;19979;-25
2022/03/04 01:50:21;;;;;;;;;;;;;;;;;;5056648;28;19940;-25
2022/03/04 01:52:47;;;;;;;;;;;;;;;;;;5055986;28;19909;-25
2022/03/04 01:55:13;;;;;;;;;;;;;;;;;;5056262;28;19927;-25
2022/03/04 01:57:39;;;;;;;;;;;;;;;;;;5055932;28;19909;-25
2022/03/04 02:00:05;;;;;;;;;;;;;;;;;;5055520;28;19920;-25
2022/03/04 02:02:31;;;;;;;;;;;;;;;;;;5055558;28;19909;-26
2022/03/04 02:04:57;;;;;;;;;;;;;;;;;;5056381;28;19917;-26
2022/03/04 02:07:23;;;;;;;;;;;;;;;;;;5055790;28;20016;-26
2022/03/04 02:09:49;;;;;;;;;;;;;;;;;;5055817;28;20308;-25
2022/03/04 02:12:15;;;;;;;;;;;;;;;;;;5055630;28;19913;-26
2022/03/04 02:14:41;;;;;;;;;;;;;;;;;;5055700;28;20390;-25
2022/03/04 02:17:07;;;;;;;;;;;;;;;;;;5055627;28;20311;-26
2022/03/04 02:19:33;;;;;;;;;;;;;;;;;;5055902;28;19948;-26
2022/03/04 02:22:00;;;;;;;;;;;;;;;;;;5055467;28;19913;-26
2022/03/04 02:24:26;;;;;;;;;;;;;;;;;;5055467;28;19913;-26
2022/03/04 02:26:52;;;;;;;;;;;;;;;;;;5055835;28;19921;-25
2022/03/04 02:29:18;;;;;;;;;;;;;;;;;;5055756;28;19936;-26
2022/03/04 02:31:44;;;;;;;;;;;;;;;;;;5055557;28;19913;-26
2022/03/04 02:34:10;;;;;;;;;;;;;;;;;;5055738;28;20350;-25
2022/03/04 02:36:37;;;;;;;;;;;;;;;;;;5054367;28;20355;-25
2022/03/04 02:39:04;;;;;;;;;;;;;;;;;;5055328;28;20374;-26
2022/03/04 02:41:30;;;;;;;;;;;;;;;;;;5055547;28;19912;-25
2022/03/04 02:43:56;;;;;;;;;;;;;;;;;;5055488;28;20255;-25
2022/03/04 02:46:22;;;;;;;;;;;;;;;;;;5055117;28;19917;-26
2022/03/04 02:48:48;;;;;;;;;;;;;;;;;;5055959;28;20016;-25
2022/03/04 02:51:14;;;;;;;;;;;;;;;;;;5055123;28;19912;-26
2022/03/04 02:53:40;;;;;;;;;;;;;;;;;;5055076;28;20280;-25
2022/03/04 02:56:06;;;;;;;;;;;;;;;;;;5054988;28;20340;-25
2022/03/04 02:58:32;;;;;;;;;;;;;;;;;;5055560;28;19916;-25
2022/03/04 03:00:58;;;;;;;;;;;;;;;;;;5055356;28;19995;-26
2022/03/04 03:03:24;;;;;;;;;;;;;;;;;;5054785;28;19921;-25
2022/03/04 03:05:50;;;;;;;;;;;;;;;;;;5054010;28;19924;-26
2022/03/04 03:08:16;;;;;;;;;;;;;;;;;;5055193;28;20406;-26
2022/03/04 03:10:42;;;;;;;;;;;;;;;;;;5056399;28;19909;-25
2022/03/04 03:13:08;;;;;;;;;;;;;;;;;;5059249;28;19913;-26
2022/03/04 03:15:34;;;;;;;;;;;;;;;;;;5059125;28;19908;-25
2022/03/04 03:18:00;;;;;;;;;;;;;;;;;;5058976;28;19920;-25
2022/03/04 03:20:26;;;;;;;;;;;;;;;;;;5058002;28;20369;-26
2022/03/04 03:22:52;;;;;;;;;;;;;;;;;;5057886;28;19992;-26
2022/03/04 03:25:18;;;;;;;;;;;;;;;;;;5058845;28;20255;-26
2022/03/04 03:27:44;;;;;;;;;;;;;;;;;;5058850;28;19920;-25
2022/03/04 03:30:10;;;;;;;;;;;;;;;;;;5058807;28;19908;-26
2022/03/04 03:32:36;;;;;;;;;;;;;;;;;;5057706;28;20236;-26
2022/03/04 03:35:02;;;;;;;;;;;;;;;;;;5057760;28;19909;-25
2022/03/04 03:37:28;;;;;;;;;;;;;;;;;;5058620;28;19912;-26
2022/03/04 03:39:54;;;;;;;;;;;;;;;;;;5058565;28;20011;-25
2022/03/04 03:42:20;;;;;;;;;;;;;;;;;;5058488;28;19913;-25
2022/03/04 03:44:46;;;;;;;;;;;;;;;;;;5058750;28;19917;-26
2022/03/04 03:47:12;;;;;;;;;;;;;;;;;;5058771;28;19917;-26
2022/03/04 03:49:37;;;;;;;;;;;;;;;;;;5058395;28;20336;-25
2022/03/04 03:52:03;;;;;;;;;;;;;;;;;;5058537;28;19996;-26
2022/03/04 03:54:29;;;;;;;;;;;;;;;;;;5058283;28;19913;-26
2022/03/04 03:56:55;;;;;;;;;;;;;;;;;;5058557;28;19920;-26
2022/03/04 03:59:21;;;;;;;;;;;;;;;;;;5058160;28;20268;-25
2022/03/04 04:01:47;;;;;;;;;;;;;;;;;;5058667;28;19909;-26
2022/03/04 04:04:13;;;;;;;;;;;;;;;;;;5057027;28;20015;-25
2022/03/04 04:06:39;;;;;;;;;;;;;;;;;;5057647;28;19996;-25
2022/03/04 04:09:05;;;;;;;;;;;;;;;;;;5058376;28;19913;-26
2022/03/04 04:11:35;;;;;;;;;;;;;;;;;;5057984;28;19935;-25
2022/03/04 04:14:01;;;;;;;;;;;;;;;;;;5057903;28;19955;-25
2022/03/04 04:16:27;;;;;;;;;;;;;;;;;;5057918;28;19913;-25
2022/03/04 04:18:53;;;;;;;;;;;;;;;;;;5057857;28;19920;-26
2022/03/04 04:21:19;;;;;;;;;;;;;;;;;;5057826;28;20229;-26
2022/03/04 04:23:45;;;;;;;;;;;;;;;;;;5057032;28;20366;-26
2022/03/04 04:26:11;;;;;;;;;;;;;;;;;;5058248;28;19920;-26
2022/03/04 04:28:37;;;;;;;;;;;;;;;;;;5057723;28;20057;-26
2022/03/04 04:31:03;;;;;;;;;;;;;;;;;;5056733;28;19917;-25
2022/03/04 04:33:31;;;;;;;;;;;;;;;;;;5057543;28;19913;-25
2022/03/04 04:35:57;;;;;;;;;;;;;;;;;;5057606;28;19913;-25
2022/03/04 04:38:23;;;;;;;;;;;;;;;;;;5057530;28;19924;-26
2022/03/04 04:40:49;;;;;;;;;;;;;;;;;;5057444;28;20008;-26
2022/03/04 04:43:15;;;;;;;;;;;;;;;;;;5057379;28;20247;-26
2022/03/04 04:45:41;;;;;;;;;;;;;;;;;;5057335;28;19920;-25
2022/03/04 04:48:07;;;;;;;;;;;;;;;;;;5057319;28;20339;-25
2022/03/04 04:50:33;;;;;;;;;;;;;;;;;;5057279;28;19909;-25
2022/03/04 04:52:58;;;;;;;;;;;;;;;;;;5057117;28;19919;-26
2022/03/04 04:55:25;;;;;;;;;;;;;;;;;;5057741;28;20378;-25
2022/03/04 04:57:51;;;;;;;;;;;;;;;;;;5057062;28;19917;-26
2022/03/04 05:00:17;;;;;;;;;;;;;;;;;;5057214;28;19935;-26
2022/03/04 05:02:44;;;;;;;;;;;;;;;;;;5056648;28;20363;-25
2022/03/04 05:05:10;;;;;;;;;;;;;;;;;;5057106;28;19917;-26
2022/03/04 05:07:36;;;;;;;;;;;;;;;;;;5056887;28;19935;-25
2022/03/04 05:10:02;;;;;;;;;;;;;;;;;;5057301;28;20004;-25
2022/03/04 05:12:29;;;;;;;;;;;;;;;;;;5055566;28;19913;-26
2022/03/04 05:14:55;;;;;;;;;;;;;;;;;;5056877;28;19920;-25
2022/03/04 05:17:21;;;;;;;;;;;;;;;;;;5056485;28;20271;-25
2022/03/04 05:19:47;;;;;;;;;;;;;;;;;;5055605;28;19912;-25
2022/03/04 05:22:13;;;;;;;;;;;;;;;;;;5055514;28;20027;-25
2022/03/04 05:24:39;;;;;;;;;;;;;;;;;;5056406;28;20445;-25
2022/03/04 05:27:05;;;;;;;;;;;;;;;;;;5056607;28;19939;-25
2022/03/04 05:29:31;;;;;;;;;;;;;;;;;;5056357;28;20022;-25
2022/03/04 05:31:58;;;;;;;;;;;;;;;;;;5056665;28;19948;-26
2022/03/04 05:34:24;;;;;;;;;;;;;;;;;;5054282;28;19920;-26
2022/03/04 05:36:50;;;;;;;;;;;;;;;;;;5056548;28;19982;-26
2022/03/04 05:39:16;;;;;;;;;;;;;;;;;;5056236;28;20327;-26
2022/03/04 05:41:42;;;;;;;;;;;;;;;;;;5056133;28;20275;-26
2022/03/04 05:44:08;;;;;;;;;;;;;;;;;;5055991;28;20069;-26
2022/03/04 05:46:34;;;;;;;;;;;;;;;;;;5056001;28;19916;-26
2022/03/04 05:49:02;;;;;;;;;;;;;;;;;;5055987;28;19908;-26
2022/03/04 05:51:28;;;;;;;;;;;;;;;;;;5056217;28;19920;-26
2022/03/04 05:53:54;;;;;;;;;;;;;;;;;;5055860;28;19909;-26
2022/03/04 05:56:20;;;;;;;;;;;;;;;;;;5055871;28;19917;-26
2022/03/04 05:58:46;;;;;;;;;;;;;;;;;;5055731;28;19916;-26
2022/03/04 06:01:12;;;;;;;;;;;;;;;;;;5055993;28;19916;-26
2022/03/04 06:03:39;;;;;;;;;;;;;;;;;;5055532;28;19999;-26
2022/03/04 06:06:05;;;;;;;;;;;;;;;;;;5055519;28;20011;-26
2022/03/04 06:08:31;;;;;;;;;;;;;;;;;;5055842;28;19951;-26
2022/03/04 06:10:56;;;;;;;;;;;;;;;;;;5055499;28;19913;-26
2022/03/04 06:13:22;;;;;;;;;;;;;;;;;;5055453;28;19916;-26
2022/03/04 06:15:48;;;;;;;;;;;;;;;;;;5055521;28;19949;-25
2022/03/04 06:18:15;;;;;;;;;;;;;;;;;;5055864;28;19909;-27
2022/03/04 06:20:41;;;;;;;;;;;;;;;;;;5055576;28;19913;-26
2022/03/04 06:23:07;;;;;;;;;;;;;;;;;;5055337;28;19978;-26
2022/03/04 06:25:33;;;;;;;;;;;;;;;;;;5055854;28;20317;-26
2022/03/04 06:27:59;;;;;;;;;;;;;;;;;;5055318;28;19912;-26
2022/03/04 06:30:25;;;;;;;;;;;;;;;;;;5054307;28;19913;-25
2022/03/04 06:32:51;;;;;;;;;;;;;;;;;;5055065;28;19971;-25
2022/03/04 06:35:17;;;;;;;;;;;;;;;;;;5055459;28;19913;-24
2022/03/04 06:37:43;;;;;;;;;;;;;;;;;;5055189;28;19917;-25
2022/03/04 06:40:09;;;;;;;;;;;;;;;;;;5055238;28;19940;-25
2022/03/04 06:42:35;;;;;;;;;;;;;;;;;;5055065;28;19923;-25
2022/03/04 06:45:01;;;;;;;;;;;;;;;;;;5055373;28;19966;-25
2022/03/04 06:47:27;;;;;;;;;;;;;;;;;;5055115;28;20375;-25
2022/03/04 06:49:53;;;;;;;;;;;;;;;;;;5055587;28;19917;-26
2022/03/04 06:52:21;;;;;;;;;;;;;;;;;;5055162;28;19909;-25
2022/03/04 06:54:47;;;;;;;;;;;;;;;;;;5053982;28;19913;-25
2022/03/04 06:57:13;;;;;;;;;;;;;;;;;;5053882;28;19916;-25
2022/03/04 06:59:39;;;;;;;;;;;;;;;;;;5054898;28;20255;-25
2022/03/04 07:02:06;;;;;;;;;;;;;;;;;;5054908;28;19912;-25
2022/03/04 07:04:32;;;;;;;;;;;;;;;;;;5054543;28;19931;-25
2022/03/04 07:06:58;;;;;;;;;;;;;;;;;;5054618;28;19923;-25
2022/03/04 07:09:24;;;;;;;;;;;;;;;;;;5053763;28;19920;-25
2022/03/04 07:11:51;;;;;;;;;;;;;;;;;;5054705;28;20327;-25
2022/03/04 07:14:17;;;;;;;;;;;;;;;;;;5053813;28;19909;-25
2022/03/04 07:16:43;;;;;;;;;;;;;;;;;;5054851;28;20043;-26
2022/03/04 07:19:09;;;;;;;;;;;;;;;;;;5054738;28;20362;-26
2022/03/04 07:21:35;;;;;;;;;;;;;;;;;;5054696;28;19952;-25
2022/03/04 07:24:01;;;;;;;;;;;;;;;;;;5054473;28;19939;-25
2022/03/04 07:26:27;;;;;;;;;;;;;;;;;;5053296;28;19987;-25
2022/03/04 07:28:53;;;;;;;;;;;;;;;;;;5054474;28;19917;-25
2022/03/04 07:31:20;;;;;;;;;;;;;;;;;;5054384;28;19912;-25
2022/03/04 07:33:46;;;;;;;;;;;;;;;;;;5053238;28;19913;-26
2022/03/04 07:36:12;;;;;;;;;;;;;;;;;;5054419;28;19974;-25
2022/03/04 07:38:38;;;;;;;;;;;;;;;;;;5053260;28;20255;-25
2022/03/04 07:41:04;;;;;;;;;;;;;;;;;;5054667;28;19913;-25
2022/03/04 07:43:30;;;;;;;;;;;;;;;;;;5054070;28;20011;-25
2022/03/04 07:45:56;;;;;;;;;;;;;;;;;;5054621;28;19913;-26
2022/03/04 07:48:22;;;;;;;;;;;;;;;;;;5053963;28;19912;-25
2022/03/04 07:50:48;;;;;;;;;;;;;;;;;;5054130;28;19915;-25
2022/03/04 07:53:15;;;;;;;;;;;;;;;;;;5054510;28;19963;-26
2022/03/04 07:55:41;;;;;;;;;;;;;;;;;;5054250;28;19909;-26
2022/03/04 07:58:07;;;;;;;;;;;;;;;;;;5056251;28;20022;-25
2022/03/04 08:00:33;;;;;;;;;;;;;;;;;;5057729;28;19916;-25
2022/03/04 08:03:01;;;;;;;;;;;;;;;;;;5057387;28;19962;-24
2022/03/04 08:05:27;;;;;;;;;;;;;;;;;;5058283;28;19925;-25
2022/03/04 08:07:53;;;;;;;;;;;;;;;;;;5058183;28;20333;-26
2022/03/04 08:10:20;;;;;;;;;;;;;;;;;;5058335;28;19912;-25
2022/03/04 08:12:46;;;;;;;;;;;;;;;;;;5057733;28;19913;-25
2022/03/04 08:15:12;;;;;;;;;;;;;;;;;;5058109;28;19923;-26
2022/03/04 08:17:39;;;;;;;;;;;;;;;;;;5056648;28;19913;-26
2022/03/04 08:20:05;;;;;;;;;;;;;;;;;;5057465;28;19940;-26
2022/03/04 08:22:31;;;;;;;;;;;;;;;;;;5057482;28;19916;-25
2022/03/04 08:24:57;;;;;;;;;;;;;;;;;;5057616;28;19973;-25
2022/03/04 08:27:23;;;;;;;;;;;;;;;;;;5057414;28;20150;-25
2022/03/04 08:29:49;;;;;;;;;;;;;;;;;;5057604;28;20391;-26
2022/03/04 08:32:16;;;;;;;;;;;;;;;;;;5057382;28;19917;-25
2022/03/04 08:34:42;;;;;;;;;;;;;;;;;;5057642;28;20424;-25
2022/03/04 08:37:08;;;;;;;;;;;;;;;;;;5057884;28;20051;-25
2022/03/04 08:39:35;;;;;;;;;;;;;;;;;;5056300;28;19938;-25
2022/03/04 08:42:01;;;;;;;;;;;;;;;;;;5057598;28;19913;-25
2022/03/04 08:44:28;;;;;;;;;;;;;;;;;;5057112;28;19977;-24
2022/03/04 08:46:53;;;;;;;;;;;;;;;;;;5057440;28;19920;-25
2022/03/04 08:49:20;;;;;;;;;;;;;;;;;;5055983;28;19999;-25
2022/03/04 08:51:46;;;;;;;;;;;;;;;;;;5057555;28;19912;-25
2022/03/04 08:54:12;;;;;;;;;;;;;;;;;;5055928;28;19962;-25
2022/03/04 08:56:38;;;;;;;;;;;;;;;;;;5055747;28;20011;-25
2022/03/04 08:59:04;;;;;;;;;;;;;;;;;;5056825;28;19963;-25
2022/03/04 09:01:30;;;;;;;;;;;;;;;;;;5056929;28;19916;-25
2022/03/04 09:03:56;;;;;;;;;;;;;;;;;;5055645;28;19974;-25
2022/03/04 09:06:22;;;;;;;;;;;;;;;;;;5056773;28;20415;-25
2022/03/04 09:08:48;;;;;;;;;;;;;;;;;;5056525;28;19913;-25
2022/03/04 09:11:14;;;;;;;;;;;;;;;;;;5057224;28;19923;-26
2022/03/04 09:13:40;;;;;;;;;;;;;;;;;;5056553;28;19916;-26
2022/03/04 09:16:06;;;;;;;;;;;;;;;;;;5055527;28;19922;-25
2022/03/04 09:18:33;;;;;;;;;;;;;;;;;;5057062;28;20252;-26
2022/03/04 09:21:00;;;;;;;;;;;;;;;;;;5056393;28;19940;-25
2022/03/04 09:23:26;;;;;;;;;;;;;;;;;;5056574;28;20255;-25
2022/03/04 09:25:52;;;;;;;;;;;;;;;;;;5056772;28;19913;-25
2022/03/04 09:28:18;;;;;;;;;;;;;;;;;;5056076;28;19935;-25
2022/03/04 09:30:44;;;;;;;;;;;;;;;;;;5056875;28;19913;-26
2022/03/04 09:33:11;;;;;;;;;;;;;;;;;;5056192;28;19913;-25
2022/03/04 09:35:37;;;;;;;;;;;;;;;;;;5056548;28;19924;-25
2022/03/04 09:38:03;;;;;;;;;;;;;;;;;;5056140;28;20382;-26
2022/03/04 09:40:29;;;;;;;;;;;;;;;;;;5056339;28;19909;-25
2022/03/04 09:42:55;;;;;;;;;;;;;;;;;;5056243;28;19913;-25
2022/03/04 09:45:21;;;;;;;;;;;;;;;;;;5056141;28;19924;-25
2022/03/04 09:47:47;;;;;;;;;;;;;;;;;;5056005;28;19909;-25
2022/03/04 09:50:15;;;;;;;;;;;;;;;;;;5056467;28;19916;-25
2022/03/04 09:52:41;;;;;;;;;;;;;;;;;;5055764;28;19908;-25
2022/03/04 09:55:07;;;;;;;;;;;;;;;;;;5055844;28;19913;-25
2022/03/04 09:57:33;;;;;;;;;;;;;;;;;;5055696;28;19924;-25
2022/03/04 09:59:59;;;;;;;;;;;;;;;;;;5055709;28;19962;-25
2022/03/04 10:02:25;;;;;;;;;;;;;;;;;;5055308;28;19913;-25
2022/03/04 10:04:52;;;;;;;;;;;;;;;;;;5055845;28;19912;-25
2022/03/04 10:07:18;;;;;;;;;;;;;;;;;;5055849;28;20263;-25
2022/03/04 10:09:44;;;;;;;;;;;;;;;;;;5055678;28;19913;-25
2022/03/04 10:12:10;;;;;;;;;;;;;;;;;;5055931;28;19966;-25
2022/03/04 10:14:36;;;;;;;;;;;;;;;;;;5055674;28;19913;-25
2022/03/04 10:17:02;;;;;;;;;;;;;;;;;;5055792;28;19908;-25
2022/03/04 10:19:29;;;;;;;;;;;;;;;;;;5055071;28;19913;-26
2022/03/04 10:21:55;;;;;;;;;;;;;;;;;;5054842;28;19912;-26
2022/03/04 10:24:21;;;;;;;;;;;;;;;;;;5055079;28;19909;-25
2022/03/04 10:26:47;;;;;;;;;;;;;;;;;;5055409;28;19917;-25
2022/03/04 10:29:13;;;;;;;;;;;;;;;;;;5055373;28;19913;-25
2022/03/04 10:31:39;;;;;;;;;;;;;;;;;;5055513;28;19992;-25
2022/03/04 10:34:06;;;;;;;;;;;;;;;;;;5055209;28;19951;-26
2022/03/04 10:36:32;;;;;;;;;;;;;;;;;;5055077;28;20023;-26
2022/03/04 10:38:58;;;;;;;;;;;;;;;;;;5055688;28;19920;-25
2022/03/04 10:41:25;;;;;;;;;;;;;;;;;;5055127;28;20262;-26
2022/03/04 10:43:51;;;;;;;;;;;;;;;;;;5055532;28;19935;-26
2022/03/04 10:46:17;;;;;;;;;;;;;;;;;;5053996;28;20343;-25
2022/03/04 10:48:43;;;;;;;;;;;;;;;;;;5054076;28;19913;-25
2022/03/04 10:51:09;;;;;;;;;;;;;;;;;;5053932;28;20347;-25
2022/03/04 10:53:35;;;;;;;;;;;;;;;;;;5054742;28;19909;-26
2022/03/04 10:56:04;;;;;;;;;;;;;;;;;;5054784;28;20355;-25
2022/03/04 10:58:31;;;;;;;;;;;;;;;;;;5053743;28;19913;-26
2022/03/04 11:00:57;;;;;;;;;;;;;;;;;;5054687;28;19975;-26
2022/03/04 11:03:23;;;;;;;;;;;;;;;;;;5054491;28;19929;-25
2022/03/04 11:05:49;;;;;;;;;;;;;;;;;;5055194;28;19978;-26
2022/03/04 11:08:15;;;;;;;;;;;;;;;;;;5054913;28;19912;-25
2022/03/04 11:10:41;;;;;;;;;;;;;;;;;;5054756;28;19920;-25
2022/03/04 11:13:08;;;;;;;;;;;;;;;;;;5054687;28;19995;-25
2022/03/04 11:15:34;;;;;;;;;;;;;;;;;;5055353;28;19917;-25
2022/03/04 11:18:00;;;;;;;;;;;;;;;;;;5054391;28;19909;-26
2022/03/04 11:20:26;;;;;;;;;;;;;;;;;;5054555;28;20335;-27
2022/03/04 11:22:53;;;;;;;;;;;;;;;;;;5054253;28;19909;-26
2022/03/04 11:25:19;;;;;;;;;;;;;;;;;;5054652;28;20013;-26
2022/03/04 11:27:45;;;;;;;;;;;;;;;;;;5054323;28;19913;-26
2022/03/04 11:30:11;;;;;;;;;;;;;;;;;;5054485;28;19963;-26
2022/03/04 11:32:37;;;;;;;;;;;;;;;;;;5056312;28;19908;-26
2022/03/04 11:35:03;;;;;;;;;;;;;;;;;;5058681;28;19952;-25
2022/03/04 11:37:30;;;;;;;;;;;;;;;;;;5058442;28;19996;-25
2022/03/04 11:39:56;;;;;;;;;;;;;;;;;;5058316;28;20367;-26
2022/03/04 11:42:22;;;;;;;;;;;;;;;;;;5058247;28;19912;-26
2022/03/04 11:44:48;;;;;;;;;;;;;;;;;;5058095;28;19909;-26
2022/03/04 11:47:14;;;;;;;;;;;;;;;;;;5058211;28;19966;-25
2022/03/04 11:49:49;;;;;;;;;;;;;;;;;;5058126;28;20286;-26
2022/03/04 11:52:21;;;;;;;;;;;;;;;;;;5058490;28;19912;-26
2022/03/04 11:54:47;;;;;;;;;;;;;;;;;;5057477;28;19939;-25
2022/03/04 11:57:13;;;;;;;;;;;;;;;;;;5058564;28;19950;-25
2022/03/04 11:59:39;;;;;;;;;;;;;;;;;;5058014;28;20255;-25
2022/03/04 12:02:05;;;;;;;;;;;;;;;;;;5057831;28;19913;-25
2022/03/04 12:04:31;;;;;;;;;;;;;;;;;;5057849;28;19921;-26
2022/03/04 12:06:57;;;;;;;;;;;;;;;;;;5057932;28;19917;-25
2022/03/04 12:09:23;;;;;;;;;;;;;;;;;;5058250;28;19917;-26
2022/03/04 12:11:49;;;;;;;;;;;;;;;;;;5057807;28;19981;-25
2022/03/04 12:14:15;;;;;;;;;;;;;;;;;;5056676;28;19923;-25
2022/03/04 12:16:41;;;;;;;;;;;;;;;;;;5057604;28;19913;-25
2022/03/04 12:19:07;;;;;;;;;;;;;;;;;;5057870;28;19913;-25
2022/03/04 12:21:33;;;;;;;;;;;;;;;;;;5057812;28;19966;-25
2022/03/04 12:24:00;;;;;;;;;;;;;;;;;;5057507;28;19944;-25
2022/03/04 12:26:26;;;;;;;;;;;;;;;;;;5056474;28;19916;-25
2022/03/04 12:28:52;;;;;;;;;;;;;;;;;;5057478;28;19967;-26
2022/03/04 12:31:18;;;;;;;;;;;;;;;;;;5056487;28;19955;-26
2022/03/04 12:33:44;;;;;;;;;;;;;;;;;;5056508;28;19909;-25
2022/03/04 12:36:10;;;;;;;;;;;;;;;;;;5057669;28;19917;-26
2022/03/04 12:38:36;;;;;;;;;;;;;;;;;;5056312;28;20344;-25
2022/03/04 12:41:02;;;;;;;;;;;;;;;;;;5057288;28;19920;-25
2022/03/04 12:43:28;;;;;;;;;;;;;;;;;;5056568;28;19919;-25
2022/03/04 12:45:54;;;;;;;;;;;;;;;;;;5057053;28;20019;-25
2022/03/04 12:48:20;;;;;;;;;;;;;;;;;;5056096;28;20369;-25
2022/03/04 12:50:46;;;;;;;;;;;;;;;;;;5057834;28;19912;-26
2022/03/04 12:53:12;;;;;;;;;;;;;;;;;;5056919;28;19921;-26
2022/03/04 12:55:39;;;;;;;;;;;;;;;;;;5055956;28;19943;-26
2022/03/04 12:58:05;;;;;;;;;;;;;;;;;;5056922;28;19937;-26
2022/03/04 13:00:31;;;;;;;;;;;;;;;;;;5056808;28;20256;-25
2022/03/04 13:02:57;;;;;;;;;;;;;;;;;;5056518;28;19927;-26
2022/03/04 13:05:23;;;;;;;;;;;;;;;;;;5056636;28;19928;-25
2022/03/04 13:07:49;;;;;;;;;;;;;;;;;;5057272;28;20335;-25
2022/03/04 13:10:15;;;;;;;;;;;;;;;;;;5056959;28;19944;-26
2022/03/04 13:12:44;;;;;;;;;;;;;;;;;;5056585;28;19913;-25
2022/03/04 13:15:11;;;;;;;;;;;;;;;;;;5056245;28;19932;-25
2022/03/04 13:17:37;;;;;;;;;;;;;;;;;;5056442;28;19912;-25
2022/03/04 13:20:03;;;;;;;;;;;;;;;;;;5055425;28;19995;-25
2022/03/04 13:22:29;;;;;;;;;;;;;;;;;;5055172;28;20383;-25
2022/03/04 13:24:55;;;;;;;;;;;;;;;;;;5056306;28;19936;-26
2022/03/04 13:27:21;;;;;;;;;;;;;;;;;;5056629;28;20000;-26
2022/03/04 13:29:47;;;;;;;;;;;;;;;;;;5055367;28;20352;-26
2022/03/04 13:32:13;;;;;;;;;;;;;;;;;;5056467;28;20306;-26
2022/03/04 13:34:39;;;;;;;;;;;;;;;;;;5056163;28;19909;-26
2022/03/04 13:37:05;;;;;;;;;;;;;;;;;;5056229;28;19912;-26
2022/03/04 13:39:31;;;;;;;;;;;;;;;;;;5055092;28;19909;-27
2022/03/04 13:41:57;;;;;;;;;;;;;;;;;;5056247;28;19975;-25
2022/03/04 13:44:23;;;;;;;;;;;;;;;;;;5056052;28;19952;-26
2022/03/04 13:46:49;;;;;;;;;;;;;;;;;;5056006;28;19917;-25
2022/03/04 13:49:15;;;;;;;;;;;;;;;;;;5055914;28;20018;-26
2022/03/04 13:51:44;;;;;;;;;;;;;;;;;;5054891;28;20378;-26
2022/03/04 13:54:10;;;;;;;;;;;;;;;;;;5055550;28;19908;-26
2022/03/04 13:56:36;;;;;;;;;;;;;;;;;;5053782;28;19912;-25
2022/03/04 13:59:02;;;;;;;;;;;;;;;;;;5056031;28;19908;-25
2022/03/04 14:01:30;;;;;;;;;;;;;;;;;;5055803;28;20263;-25
2022/03/04 14:03:57;;;;;;;;;;;;;;;;;;5055125;28;19920;-25
2022/03/04 14:06:23;;;;;;;;;;;;;;;;;;5055369;28;20374;-26
2022/03/04 14:08:49;;;;;;;;;;;;;;;;;;5055848;28;19913;-25
2022/03/04 14:11:15;;;;;;;;;;;;;;;;;;5055191;28;19913;-27
2022/03/04 14:13:41;;;;;;;;;;;;;;;;;;5055515;28;19909;-25
2022/03/04 14:16:07;;;;;;;;;;;;;;;;;;5055637;28;19971;-25
2022/03/04 14:18:34;;;;;;;;;;;;;;;;;;5055364;28;19928;-25
2022/03/04 14:21:03;;;;;;;;;;;;;;;;;;5055522;28;20355;-26
2022/03/04 14:23:29;;;;;;;;;;;;;;;;;;5055287;28;19932;-25
2022/03/04 14:25:57;;;;;;;;;;;;;;;;;;5055748;28;19935;-25
2022/03/04 14:28:23;;;;;;;;;;;;;;;;;;5054274;28;20351;-26
2022/03/04 14:30:49;;;;;;;;;;;;;;;;;;5055575;28;19916;-26
2022/03/04 14:33:15;;;;;;;;;;;;;;;;;;5055164;28;19917;-25
2022/03/04 14:35:41;;;;;;;;;;;;;;;;;;5054267;28;20012;-25
2022/03/04 14:38:07;;;;;;;;;;;;;;;;;;5055218;28;19923;-25
2022/03/04 14:40:33;;;;;;;;;;;;;;;;;;5055203;28;19916;-25
2022/03/04 14:43:02;;;;;;;;;;;;;;;;;;5055299;28;19916;-26
2022/03/04 14:45:28;;;;;;;;;;;;;;;;;;5055319;28;19916;-25
2022/03/04 14:47:54;;;;;;;;;;;;;;;;;;5055344;28;20263;-25
2022/03/04 14:50:20;;;;;;;;;;;;;;;;;;5055158;28;19970;-25
2022/03/04 14:52:49;;;;;;;;;;;;;;;;;;5054936;28;20384;-25
2022/03/04 14:55:15;;;;;;;;;;;;;;;;;;5054731;28;19913;-25
2022/03/04 14:57:41;;;;;;;;;;;;;;;;;;5053626;28;19909;-25
2022/03/04 15:00:06;;;;;;;;;;;;;;;;;;5054909;28;20247;-25
2022/03/04 15:02:32;;;;;;;;;;;;;;;;;;5054824;28;19921;-26
2022/03/04 15:04:58;;;;;;;;;;;;;;;;;;5055171;28;19963;-25
2022/03/04 15:07:24;;;;;;;;;;;;;;;;;;5055056;28;19913;-25
2022/03/04 15:09:50;;;;;;;;;;;;;;;;;;5053730;28;20003;-26
2022/03/04 15:12:16;;;;;;;;;;;;;;;;;;5054579;28;19999;-25
2022/03/04 15:14:42;;;;;;;;;;;;;;;;;;5054719;28;19967;-25
2022/03/04 15:17:09;;;;;;;;;;;;;;;;;;5054789;28;19970;-26
2022/03/04 15:19:35;;;;;;;;;;;;;;;;;;5054626;28;19912;-27
2022/03/04 15:22:01;;;;;;;;;;;;;;;;;;5054636;28;19920;-26
2022/03/04 15:24:27;;;;;;;;;;;;;;;;;;5054726;28;19970;-26
2022/03/04 15:26:53;;;;;;;;;;;;;;;;;;5054570;28;19921;-26
2022/03/04 15:29:19;;;;;;;;;;;;;;;;;;5055063;28;19909;-26
2022/03/04 15:31:45;;;;;;;;;;;;;;;;;;5054447;28;19913;-27
2022/03/04 15:34:11;;;;;;;;;;;;;;;;;;5053523;28;20263;-27
2022/03/04 15:36:37;;;;;;;;;;;;;;;;;;5054864;28;19917;-26
2022/03/04 15:39:03;;;;;;;;;;;;;;;;;;5053539;28;20520;-26
2022/03/04 15:41:29;;;;;;;;;;;;;;;;;;5054368;28;19996;-26
2022/03/04 15:43:55;;;;;;;;;;;;;;;;;;5054290;28;19940;-26
2022/03/04 15:46:21;;;;;;;;;;;;;;;;;;5054595;28;19927;-26
2022/03/04 15:48:49;;;;;;;;;;;;;;;;;;5054342;28;20266;-26
2022/03/04 15:51:15;;;;;;;;;;;;;;;;;;5054500;28;20233;-26
2022/03/04 15:53:41;;;;;;;;;;;;;;;;;;5054190;28;19917;-26
2022/03/04 15:56:07;;;;;;;;;;;;;;;;;;5054471;28;20000;-26
2022/03/04 15:58:33;;;;;;;;;;;;;;;;;;5054834;28;19923;-27
2022/03/04 16:01:00;;;;;;;;;;;;;;;;;;5053263;28;19923;-26
2022/03/04 16:03:27;;;;;;;;;;;;;;;;;;5053036;28;19920;-27
2022/03/04 16:05:53;;;;;;;;;;;;;;;;;;5054141;28;19999;-26
2022/03/04 16:08:20;;;;;;;;;;;;;;;;;;5054097;28;19913;-26
2022/03/04 16:10:46;;;;;;;;;;;;;;;;;;5054222;28;19913;-26
2022/03/04 16:13:13;;;;;;;;;;;;;;;;;;5054448;28;19919;-26
2022/03/04 16:15:39;;;;;;;;;;;;;;;;;;5054441;28;19916;-26
2022/03/04 16:18:05;;;;;;;;;;;;;;;;;;5054738;28;20378;-26
2022/03/04 16:20:31;;;;;;;;;;;;;;;;;;5057777;28;19912;-26
2022/03/04 16:22:57;;;;;;;;;;;;;;;;;;5057556;28;20259;-26
2022/03/04 16:25:23;;;;;;;;;;;;;;;;;;5058107;28;19917;-26
2022/03/04 16:27:49;;;;;;;;;;;;;;;;;;5057575;28;19909;-26
2022/03/04 16:30:15;;;;;;;;;;;;;;;;;;5057628;28;20000;-26
2022/03/04 16:32:41;;;;;;;;;;;;;;;;;;5057438;28;19991;-26
2022/03/04 16:35:07;;;;;;;;;;;;;;;;;;5057586;28;19998;-26
2022/03/04 16:37:33;;;;;;;;;;;;;;;;;;5057692;28;20252;-26